sensor_id;sensor_type;location;lat;lon;timestamp;P1;durP1;ratioP1;P2;durP2;ratioP2
25073;SDS011;13066;52.042;5.648;2022-07-29T00:01:18;4.18;;;1.48;;
25073;SDS011;13066;52.042;5.648;2022-07-29T00:03:46;4.50;;;1.30;;
25073;SDS011;13066;52.042;5.648;2022-07-29T00:06:15;7.13;;;1.67;;
25073;SDS011;13066;52.042;5.648;2022-07-29T00:08:43;3.40;;;1.33;;
25073;SDS011;13066;52.042;5.648;2022-07-29T00:11:11;9.25;;;1.50;;
25073;SDS011;13066;52.042;5.648;2022-07-29T00:13:39;2.72;;;1.27;;
25073;SDS011;13066;52.042;5.648;2022-07-29T00:16:15;3.28;;;1.38;;
25073;SDS011;13066;52.042;5.648;2022-07-29T00:18:43;5.00;;;1.42;;
25073;SDS011;13066;52.042;5.648;2022-07-29T00:21:11;3.65;;;1.23;;
25073;SDS011;13066;52.042;5.648;2022-07-29T00:23:39;3.85;;;1.52;;
25073;SDS011;13066;52.042;5.648;2022-07-29T00:26:08;4.55;;;1.40;;
25073;SDS011;13066;52.042;5.648;2022-07-29T00:28:36;1.42;;;1.08;;
25073;SDS011;13066;52.042;5.648;2022-07-29T00:31:04;2.35;;;1.30;;
25073;SDS011;13066;52.042;5.648;2022-07-29T00:33:33;6.30;;;1.20;;
25073;SDS011;13066;52.042;5.648;2022-07-29T00:36:01;1.70;;;1.10;;
25073;SDS011;13066;52.042;5.648;2022-07-29T00:38:29;2.50;;;1.40;;
25073;SDS011;13066;52.042;5.648;2022-07-29T00:40:57;3.10;;;1.40;;
25073;SDS011;13066;52.042;5.648;2022-07-29T00:43:25;3.85;;;1.63;;
25073;SDS011;13066;52.042;5.648;2022-07-29T00:45:53;3.45;;;1.10;;
25073;SDS011;13066;52.042;5.648;2022-07-29T00:48:22;5.28;;;1.30;;
25073;SDS011;13066;52.042;5.648;2022-07-29T00:50:51;6.30;;;1.67;;
25073;SDS011;13066;52.042;5.648;2022-07-29T00:53:19;3.40;;;1.35;;
25073;SDS011;13066;52.042;5.648;2022-07-29T00:55:48;1.40;;;1.05;;
25073;SDS011;13066;52.042;5.648;2022-07-29T00:58:17;7.38;;;1.40;;
25073;SDS011;13066;52.042;5.648;2022-07-29T01:00:45;6.80;;;1.17;;
25073;SDS011;13066;52.042;5.648;2022-07-29T01:03:14;2.20;;;1.02;;
25073;SDS011;13066;52.042;5.648;2022-07-29T01:05:43;2.97;;;1.20;;
25073;SDS011;13066;52.042;5.648;2022-07-29T01:08:18;1.75;;;0.98;;
25073;SDS011;13066;52.042;5.648;2022-07-29T01:10:47;4.45;;;1.30;;
25073;SDS011;13066;52.042;5.648;2022-07-29T01:13:16;2.17;;;1.30;;
25073;SDS011;13066;52.042;5.648;2022-07-29T01:15:46;2.30;;;1.15;;
25073;SDS011;13066;52.042;5.648;2022-07-29T01:20:58;7.45;;;1.30;;
25073;SDS011;13066;52.042;5.648;2022-07-29T01:24:02;4.10;;;1.08;;
25073;SDS011;13066;52.042;5.648;2022-07-29T01:29:18;3.17;;;1.20;;
25073;SDS011;13066;52.042;5.648;2022-07-29T01:32:04;4.47;;;1.17;;
25073;SDS011;13066;52.042;5.648;2022-07-29T01:34:54;2.05;;;1.25;;
25073;SDS011;13066;52.042;5.648;2022-07-29T01:37:26;2.42;;;1.30;;
25073;SDS011;13066;52.042;5.648;2022-07-29T01:40:00;3.95;;;1.30;;
25073;SDS011;13066;52.042;5.648;2022-07-29T01:42:32;3.53;;;1.23;;
25073;SDS011;13066;52.042;5.648;2022-07-29T01:45:06;3.40;;;1.27;;
25073;SDS011;13066;52.042;5.648;2022-07-29T01:47:40;4.45;;;1.48;;
25073;SDS011;13066;52.042;5.648;2022-07-29T01:50:12;3.10;;;1.30;;
25073;SDS011;13066;52.042;5.648;2022-07-29T01:52:44;6.20;;;1.52;;
25073;SDS011;13066;52.042;5.648;2022-07-29T01:55:16;4.05;;;1.23;;
25073;SDS011;13066;52.042;5.648;2022-07-29T01:57:47;5.65;;;1.55;;
25073;SDS011;13066;52.042;5.648;2022-07-29T02:00:17;4.32;;;1.50;;
25073;SDS011;13066;52.042;5.648;2022-07-29T02:02:46;3.30;;;1.65;;
25073;SDS011;13066;52.042;5.648;2022-07-29T02:05:17;2.67;;;1.60;;
25073;SDS011;13066;52.042;5.648;2022-07-29T02:07:47;3.25;;;1.60;;
25073;SDS011;13066;52.042;5.648;2022-07-29T02:10:18;5.47;;;1.50;;
25073;SDS011;13066;52.042;5.648;2022-07-29T02:12:51;3.92;;;1.73;;
25073;SDS011;13066;52.042;5.648;2022-07-29T02:15:23;2.95;;;1.52;;
25073;SDS011;13066;52.042;5.648;2022-07-29T02:17:54;3.80;;;1.40;;
25073;SDS011;13066;52.042;5.648;2022-07-29T02:20:25;2.83;;;1.75;;
25073;SDS011;13066;52.042;5.648;2022-07-29T02:22:55;3.53;;;1.30;;
25073;SDS011;13066;52.042;5.648;2022-07-29T02:25:25;6.07;;;1.20;;
25073;SDS011;13066;52.042;5.648;2022-07-29T02:28:03;5.03;;;1.70;;
25073;SDS011;13066;52.042;5.648;2022-07-29T02:30:35;8.65;;;1.85;;
25073;SDS011;13066;52.042;5.648;2022-07-29T02:33:06;2.40;;;1.33;;
25073;SDS011;13066;52.042;5.648;2022-07-29T02:35:37;5.45;;;1.63;;
25073;SDS011;13066;52.042;5.648;2022-07-29T02:38:07;2.95;;;1.50;;
25073;SDS011;13066;52.042;5.648;2022-07-29T02:40:56;5.05;;;1.75;;
25073;SDS011;13066;52.042;5.648;2022-07-29T02:43:26;2.85;;;1.40;;
25073;SDS011;13066;52.042;5.648;2022-07-29T02:45:57;4.57;;;1.70;;
25073;SDS011;13066;52.042;5.648;2022-07-29T02:48:31;2.92;;;1.50;;
25073;SDS011;13066;52.042;5.648;2022-07-29T02:51:05;4.93;;;1.60;;
25073;SDS011;13066;52.042;5.648;2022-07-29T02:54:06;2.92;;;1.60;;
25073;SDS011;13066;52.042;5.648;2022-07-29T02:56:36;5.05;;;1.60;;
25073;SDS011;13066;52.042;5.648;2022-07-29T02:59:08;3.75;;;1.45;;
25073;SDS011;13066;52.042;5.648;2022-07-29T03:01:41;3.50;;;1.55;;
25073;SDS011;13066;52.042;5.648;2022-07-29T03:04:11;4.65;;;1.52;;
25073;SDS011;13066;52.042;5.648;2022-07-29T03:06:41;7.38;;;2.03;;
25073;SDS011;13066;52.042;5.648;2022-07-29T03:09:12;2.28;;;1.42;;
25073;SDS011;13066;52.042;5.648;2022-07-29T03:11:41;3.28;;;1.55;;
25073;SDS011;13066;52.042;5.648;2022-07-29T03:14:16;6.15;;;1.77;;
25073;SDS011;13066;52.042;5.648;2022-07-29T03:16:48;4.63;;;1.70;;
25073;SDS011;13066;52.042;5.648;2022-07-29T03:19:18;4.50;;;2.08;;
25073;SDS011;13066;52.042;5.648;2022-07-29T03:21:47;4.40;;;1.75;;
25073;SDS011;13066;52.042;5.648;2022-07-29T03:24:25;7.72;;;2.08;;
25073;SDS011;13066;52.042;5.648;2022-07-29T03:26:57;2.92;;;1.55;;
25073;SDS011;13066;52.042;5.648;2022-07-29T03:29:26;4.32;;;1.65;;
25073;SDS011;13066;52.042;5.648;2022-07-29T03:32:01;4.40;;;1.50;;
25073;SDS011;13066;52.042;5.648;2022-07-29T03:34:33;2.45;;;1.75;;
25073;SDS011;13066;52.042;5.648;2022-07-29T03:37:02;3.03;;;1.77;;
25073;SDS011;13066;52.042;5.648;2022-07-29T03:39:33;7.30;;;1.80;;
25073;SDS011;13066;52.042;5.648;2022-07-29T03:42:04;5.93;;;1.90;;
25073;SDS011;13066;52.042;5.648;2022-07-29T03:44:34;6.82;;;1.85;;
25073;SDS011;13066;52.042;5.648;2022-07-29T03:47:04;6.75;;;2.03;;
25073;SDS011;13066;52.042;5.648;2022-07-29T03:49:36;5.90;;;2.15;;
25073;SDS011;13066;52.042;5.648;2022-07-29T03:52:05;4.85;;;2.10;;
25073;SDS011;13066;52.042;5.648;2022-07-29T03:54:33;4.20;;;1.80;;
25073;SDS011;13066;52.042;5.648;2022-07-29T03:57:02;5.65;;;1.98;;
25073;SDS011;13066;52.042;5.648;2022-07-29T03:59:32;3.70;;;2.20;;
25073;SDS011;13066;52.042;5.648;2022-07-29T04:02:02;5.75;;;1.88;;
25073;SDS011;13066;52.042;5.648;2022-07-29T04:04:33;3.95;;;1.98;;
25073;SDS011;13066;52.042;5.648;2022-07-29T04:07:02;3.15;;;1.95;;
25073;SDS011;13066;52.042;5.648;2022-07-29T04:09:31;4.40;;;1.83;;
25073;SDS011;13066;52.042;5.648;2022-07-29T04:12:00;6.13;;;2.15;;
25073;SDS011;13066;52.042;5.648;2022-07-29T04:14:30;2.42;;;1.95;;
25073;SDS011;13066;52.042;5.648;2022-07-29T04:16:59;4.45;;;1.88;;
25073;SDS011;13066;52.042;5.648;2022-07-29T04:19:27;5.80;;;2.30;;
25073;SDS011;13066;52.042;5.648;2022-07-29T04:21:57;4.13;;;2.08;;
25073;SDS011;13066;52.042;5.648;2022-07-29T04:24:26;3.88;;;1.98;;
25073;SDS011;13066;52.042;5.648;2022-07-29T04:26:54;4.10;;;2.20;;
25073;SDS011;13066;52.042;5.648;2022-07-29T04:29:22;2.83;;;2.00;;
25073;SDS011;13066;52.042;5.648;2022-07-29T04:31:50;2.97;;;1.92;;
25073;SDS011;13066;52.042;5.648;2022-07-29T04:34:19;8.50;;;2.40;;
25073;SDS011;13066;52.042;5.648;2022-07-29T04:36:47;6.00;;;2.17;;
25073;SDS011;13066;52.042;5.648;2022-07-29T04:39:16;5.82;;;2.10;;
25073;SDS011;13066;52.042;5.648;2022-07-29T04:41:48;2.55;;;1.98;;
25073;SDS011;13066;52.042;5.648;2022-07-29T04:44:20;8.07;;;2.50;;
25073;SDS011;13066;52.042;5.648;2022-07-29T04:49:22;4.55;;;1.52;;
25073;SDS011;13066;52.042;5.648;2022-07-29T04:51:51;9.25;;;2.50;;
25073;SDS011;13066;52.042;5.648;2022-07-29T04:54:21;4.70;;;2.00;;
25073;SDS011;13066;52.042;5.648;2022-07-29T04:56:50;8.07;;;2.00;;
25073;SDS011;13066;52.042;5.648;2022-07-29T04:59:18;4.03;;;2.00;;
25073;SDS011;13066;52.042;5.648;2022-07-29T05:01:46;2.50;;;1.98;;
25073;SDS011;13066;52.042;5.648;2022-07-29T05:04:14;8.15;;;2.42;;
25073;SDS011;13066;52.042;5.648;2022-07-29T05:06:43;3.53;;;2.30;;
25073;SDS011;13066;52.042;5.648;2022-07-29T05:09:11;4.20;;;2.53;;
25073;SDS011;13066;52.042;5.648;2022-07-29T05:11:41;7.45;;;2.42;;
25073;SDS011;13066;52.042;5.648;2022-07-29T05:14:09;5.47;;;2.17;;
25073;SDS011;13066;52.042;5.648;2022-07-29T05:16:37;5.60;;;2.05;;
25073;SDS011;13066;52.042;5.648;2022-07-29T05:19:07;4.43;;;2.40;;
25073;SDS011;13066;52.042;5.648;2022-07-29T05:21:39;9.30;;;1.85;;
25073;SDS011;13066;52.042;5.648;2022-07-29T05:24:08;4.35;;;2.10;;
25073;SDS011;13066;52.042;5.648;2022-07-29T05:26:36;4.38;;;2.17;;
25073;SDS011;13066;52.042;5.648;2022-07-29T05:29:05;7.22;;;2.20;;
25073;SDS011;13066;52.042;5.648;2022-07-29T05:31:53;5.13;;;2.17;;
25073;SDS011;13066;52.042;5.648;2022-07-29T05:34:21;4.78;;;2.08;;
25073;SDS011;13066;52.042;5.648;2022-07-29T05:36:51;6.57;;;2.20;;
25073;SDS011;13066;52.042;5.648;2022-07-29T05:39:19;5.93;;;2.25;;
25073;SDS011;13066;52.042;5.648;2022-07-29T05:42:08;5.82;;;2.42;;
25073;SDS011;13066;52.042;5.648;2022-07-29T05:44:38;5.90;;;1.90;;
25073;SDS011;13066;52.042;5.648;2022-07-29T05:47:06;7.32;;;2.65;;
25073;SDS011;13066;52.042;5.648;2022-07-29T05:49:35;4.78;;;2.10;;
25073;SDS011;13066;52.042;5.648;2022-07-29T05:52:03;5.63;;;2.03;;
25073;SDS011;13066;52.042;5.648;2022-07-29T05:54:32;4.93;;;2.50;;
25073;SDS011;13066;52.042;5.648;2022-07-29T05:57:00;5.65;;;2.47;;
25073;SDS011;13066;52.042;5.648;2022-07-29T05:59:28;4.50;;;2.35;;
25073;SDS011;13066;52.042;5.648;2022-07-29T06:01:58;5.72;;;2.20;;
25073;SDS011;13066;52.042;5.648;2022-07-29T06:04:26;7.90;;;2.28;;
25073;SDS011;13066;52.042;5.648;2022-07-29T06:06:54;4.05;;;1.92;;
25073;SDS011;13066;52.042;5.648;2022-07-29T06:09:22;3.00;;;2.35;;
25073;SDS011;13066;52.042;5.648;2022-07-29T06:11:50;7.00;;;2.33;;
25073;SDS011;13066;52.042;5.648;2022-07-29T06:14:18;5.82;;;2.10;;
25073;SDS011;13066;52.042;5.648;2022-07-29T06:16:47;4.50;;;2.10;;
25073;SDS011;13066;52.042;5.648;2022-07-29T06:19:16;3.50;;;2.15;;
25073;SDS011;13066;52.042;5.648;2022-07-29T06:21:45;4.97;;;2.00;;
25073;SDS011;13066;52.042;5.648;2022-07-29T06:24:14;4.97;;;2.00;;
25073;SDS011;13066;52.042;5.648;2022-07-29T06:26:43;5.78;;;2.00;;
25073;SDS011;13066;52.042;5.648;2022-07-29T06:29:12;3.85;;;2.00;;
25073;SDS011;13066;52.042;5.648;2022-07-29T06:31:40;6.50;;;2.75;;
25073;SDS011;13066;52.042;5.648;2022-07-29T06:34:08;6.78;;;2.17;;
25073;SDS011;13066;52.042;5.648;2022-07-29T06:36:37;5.65;;;2.58;;
25073;SDS011;13066;52.042;5.648;2022-07-29T06:39:07;6.78;;;2.45;;
25073;SDS011;13066;52.042;5.648;2022-07-29T06:41:37;5.30;;;2.20;;
25073;SDS011;13066;52.042;5.648;2022-07-29T06:44:05;2.53;;;2.10;;
25073;SDS011;13066;52.042;5.648;2022-07-29T06:46:33;4.38;;;2.35;;
25073;SDS011;13066;52.042;5.648;2022-07-29T06:49:02;4.47;;;2.63;;
25073;SDS011;13066;52.042;5.648;2022-07-29T06:51:30;9.57;;;2.20;;
25073;SDS011;13066;52.042;5.648;2022-07-29T06:53:59;5.50;;;2.30;;
25073;SDS011;13066;52.042;5.648;2022-07-29T06:56:29;2.80;;;2.50;;
25073;SDS011;13066;52.042;5.648;2022-07-29T06:59:05;4.57;;;2.28;;
25073;SDS011;13066;52.042;5.648;2022-07-29T07:01:34;4.63;;;2.42;;
25073;SDS011;13066;52.042;5.648;2022-07-29T07:04:03;5.32;;;2.42;;
25073;SDS011;13066;52.042;5.648;2022-07-29T07:06:31;5.18;;;2.80;;
25073;SDS011;13066;52.042;5.648;2022-07-29T07:09:00;7.47;;;2.85;;
25073;SDS011;13066;52.042;5.648;2022-07-29T07:11:29;2.78;;;2.33;;
25073;SDS011;13066;52.042;5.648;2022-07-29T07:13:57;6.90;;;2.20;;
25073;SDS011;13066;52.042;5.648;2022-07-29T07:16:29;9.02;;;2.33;;
25073;SDS011;13066;52.042;5.648;2022-07-29T07:18:58;4.80;;;2.60;;
25073;SDS011;13066;52.042;5.648;2022-07-29T07:21:26;8.07;;;2.20;;
25073;SDS011;13066;52.042;5.648;2022-07-29T07:23:56;3.60;;;2.20;;
25073;SDS011;13066;52.042;5.648;2022-07-29T07:26:25;3.63;;;2.10;;
25073;SDS011;13066;52.042;5.648;2022-07-29T07:28:54;6.40;;;2.53;;
25073;SDS011;13066;52.042;5.648;2022-07-29T07:31:22;10.77;;;2.47;;
25073;SDS011;13066;52.042;5.648;2022-07-29T07:33:50;4.70;;;2.30;;
25073;SDS011;13066;52.042;5.648;2022-07-29T07:36:19;4.03;;;2.20;;
25073;SDS011;13066;52.042;5.648;2022-07-29T07:38:47;5.15;;;2.33;;
25073;SDS011;13066;52.042;5.648;2022-07-29T07:41:16;8.63;;;2.53;;
25073;SDS011;13066;52.042;5.648;2022-07-29T07:43:46;9.25;;;2.42;;
25073;SDS011;13066;52.042;5.648;2022-07-29T07:46:14;3.85;;;2.13;;
25073;SDS011;13066;52.042;5.648;2022-07-29T07:48:42;8.18;;;2.30;;
25073;SDS011;13066;52.042;5.648;2022-07-29T07:51:11;3.55;;;2.00;;
25073;SDS011;13066;52.042;5.648;2022-07-29T07:53:39;5.35;;;2.40;;
25073;SDS011;13066;52.042;5.648;2022-07-29T07:56:07;4.07;;;2.50;;
25073;SDS011;13066;52.042;5.648;2022-07-29T07:58:37;7.07;;;2.65;;
25073;SDS011;13066;52.042;5.648;2022-07-29T08:01:07;4.03;;;2.33;;
25073;SDS011;13066;52.042;5.648;2022-07-29T08:03:35;5.15;;;2.45;;
25073;SDS011;13066;52.042;5.648;2022-07-29T08:06:04;6.88;;;2.47;;
25073;SDS011;13066;52.042;5.648;2022-07-29T08:08:33;3.03;;;2.42;;
25073;SDS011;13066;52.042;5.648;2022-07-29T08:11:01;9.25;;;2.92;;
25073;SDS011;13066;52.042;5.648;2022-07-29T08:13:35;11.00;;;3.03;;
25073;SDS011;13066;52.042;5.648;2022-07-29T08:16:04;7.03;;;2.53;;
25073;SDS011;13066;52.042;5.648;2022-07-29T08:18:42;5.90;;;2.10;;
25073;SDS011;13066;52.042;5.648;2022-07-29T08:21:11;5.43;;;2.50;;
25073;SDS011;13066;52.042;5.648;2022-07-29T08:23:41;6.30;;;2.60;;
25073;SDS011;13066;52.042;5.648;2022-07-29T08:26:24;9.88;;;2.78;;
25073;SDS011;13066;52.042;5.648;2022-07-29T08:28:52;4.38;;;2.20;;
25073;SDS011;13066;52.042;5.648;2022-07-29T08:31:21;10.55;;;2.40;;
25073;SDS011;13066;52.042;5.648;2022-07-29T08:33:49;6.47;;;2.38;;
25073;SDS011;13066;52.042;5.648;2022-07-29T08:36:18;8.85;;;2.35;;
25073;SDS011;13066;52.042;5.648;2022-07-29T08:38:47;5.10;;;2.63;;
25073;SDS011;13066;52.042;5.648;2022-07-29T08:41:16;5.90;;;2.38;;
25073;SDS011;13066;52.042;5.648;2022-07-29T08:43:45;6.72;;;2.38;;
25073;SDS011;13066;52.042;5.648;2022-07-29T08:46:13;6.22;;;2.20;;
25073;SDS011;13066;52.042;5.648;2022-07-29T08:48:44;9.90;;;2.42;;
25073;SDS011;13066;52.042;5.648;2022-07-29T08:51:13;6.88;;;2.25;;
25073;SDS011;13066;52.042;5.648;2022-07-29T08:53:44;9.25;;;2.03;;
25073;SDS011;13066;52.042;5.648;2022-07-29T08:56:14;3.78;;;2.13;;
25073;SDS011;13066;52.042;5.648;2022-07-29T08:58:44;10.43;;;2.17;;
25073;SDS011;13066;52.042;5.648;2022-07-29T09:01:21;4.20;;;2.53;;
25073;SDS011;13066;52.042;5.648;2022-07-29T09:04:09;9.13;;;2.67;;
25073;SDS011;13066;52.042;5.648;2022-07-29T09:06:40;3.05;;;2.00;;
25073;SDS011;13066;52.042;5.648;2022-07-29T09:09:11;8.00;;;2.60;;
25073;SDS011;13066;52.042;5.648;2022-07-29T09:11:41;11.15;;;2.80;;
25073;SDS011;13066;52.042;5.648;2022-07-29T09:14:11;16.52;;;2.45;;
25073;SDS011;13066;52.042;5.648;2022-07-29T09:16:53;10.13;;;2.63;;
25073;SDS011;13066;52.042;5.648;2022-07-29T09:19:24;4.53;;;2.42;;
25073;SDS011;13066;52.042;5.648;2022-07-29T09:21:54;9.05;;;2.80;;
25073;SDS011;13066;52.042;5.648;2022-07-29T09:24:39;7.40;;;2.50;;
25073;SDS011;13066;52.042;5.648;2022-07-29T09:27:09;5.95;;;2.20;;
25073;SDS011;13066;52.042;5.648;2022-07-29T09:29:44;5.72;;;2.05;;
25073;SDS011;13066;52.042;5.648;2022-07-29T09:32:12;8.90;;;2.80;;
25073;SDS011;13066;52.042;5.648;2022-07-29T09:34:43;9.18;;;2.72;;
25073;SDS011;13066;52.042;5.648;2022-07-29T09:37:11;5.85;;;3.00;;
25073;SDS011;13066;52.042;5.648;2022-07-29T09:39:53;4.13;;;2.63;;
25073;SDS011;13066;52.042;5.648;2022-07-29T09:42:29;6.10;;;2.08;;
25073;SDS011;13066;52.042;5.648;2022-07-29T09:45:00;4.80;;;2.53;;
25073;SDS011;13066;52.042;5.648;2022-07-29T09:47:43;6.20;;;2.40;;
25073;SDS011;13066;52.042;5.648;2022-07-29T09:50:16;6.75;;;2.83;;
25073;SDS011;13066;52.042;5.648;2022-07-29T09:55:19;3.53;;;2.10;;
25073;SDS011;13066;52.042;5.648;2022-07-29T09:57:47;9.82;;;2.60;;
25073;SDS011;13066;52.042;5.648;2022-07-29T10:00:15;5.20;;;2.40;;
25073;SDS011;13066;52.042;5.648;2022-07-29T10:02:45;3.42;;;2.30;;
25073;SDS011;13066;52.042;5.648;2022-07-29T10:05:19;3.67;;;1.85;;
25073;SDS011;13066;52.042;5.648;2022-07-29T10:10:20;14.02;;;1.63;;
25073;SDS011;13066;52.042;5.648;2022-07-29T10:12:52;5.35;;;1.95;;
25073;SDS011;13066;52.042;5.648;2022-07-29T10:15:22;3.05;;;1.70;;
25073;SDS011;13066;52.042;5.648;2022-07-29T10:17:51;11.75;;;1.50;;
25073;SDS011;13066;52.042;5.648;2022-07-29T10:20:21;6.57;;;1.98;;
25073;SDS011;13066;52.042;5.648;2022-07-29T10:22:51;5.25;;;1.75;;
25073;SDS011;13066;52.042;5.648;2022-07-29T10:25:20;5.18;;;1.75;;
25073;SDS011;13066;52.042;5.648;2022-07-29T10:27:49;6.82;;;1.38;;
25073;SDS011;13066;52.042;5.648;2022-07-29T10:30:19;8.20;;;1.80;;
25073;SDS011;13066;52.042;5.648;2022-07-29T10:32:54;5.07;;;1.67;;
25073;SDS011;13066;52.042;5.648;2022-07-29T10:35:47;2.70;;;1.48;;
25073;SDS011;13066;52.042;5.648;2022-07-29T10:38:36;7.82;;;1.73;;
25073;SDS011;13066;52.042;5.648;2022-07-29T10:44:54;4.78;;;1.70;;
25073;SDS011;13066;52.042;5.648;2022-07-29T10:47:25;5.95;;;2.20;;
25073;SDS011;13066;52.042;5.648;2022-07-29T10:49:55;6.38;;;2.15;;
25073;SDS011;13066;52.042;5.648;2022-07-29T10:55:30;6.88;;;2.00;;
25073;SDS011;13066;52.042;5.648;2022-07-29T10:58:10;3.45;;;1.80;;
25073;SDS011;13066;52.042;5.648;2022-07-29T11:00:39;3.20;;;1.90;;
25073;SDS011;13066;52.042;5.648;2022-07-29T11:09:36;9.18;;;1.83;;
25073;SDS011;13066;52.042;5.648;2022-07-29T11:12:04;7.75;;;1.65;;
25073;SDS011;13066;52.042;5.648;2022-07-29T11:15:12;3.95;;;1.77;;
25073;SDS011;13066;52.042;5.648;2022-07-29T11:18:04;8.25;;;2.08;;
25073;SDS011;13066;52.042;5.648;2022-07-29T11:20:40;7.10;;;2.00;;
25073;SDS011;13066;52.042;5.648;2022-07-29T11:23:17;7.10;;;1.75;;
25073;SDS011;13066;52.042;5.648;2022-07-29T11:26:17;7.97;;;1.90;;
25073;SDS011;13066;52.042;5.648;2022-07-29T11:28:51;4.55;;;1.38;;
25073;SDS011;13066;52.042;5.648;2022-07-29T11:34:21;5.80;;;1.83;;
25073;SDS011;13066;52.042;5.648;2022-07-29T11:40:15;4.35;;;1.60;;
25073;SDS011;13066;52.042;5.648;2022-07-29T11:42:46;3.95;;;1.60;;
25073;SDS011;13066;52.042;5.648;2022-07-29T11:45:22;4.35;;;1.45;;
25073;SDS011;13066;52.042;5.648;2022-07-29T11:48:15;2.85;;;1.25;;
25073;SDS011;13066;52.042;5.648;2022-07-29T11:50:57;4.45;;;1.55;;
25073;SDS011;13066;52.042;5.648;2022-07-29T11:53:26;4.40;;;1.70;;
25073;SDS011;13066;52.042;5.648;2022-07-29T11:55:59;4.03;;;1.27;;
25073;SDS011;13066;52.042;5.648;2022-07-29T11:58:30;4.68;;;1.45;;
25073;SDS011;13066;52.042;5.648;2022-07-29T12:00:58;5.05;;;1.65;;
25073;SDS011;13066;52.042;5.648;2022-07-29T12:03:47;3.83;;;1.70;;
25073;SDS011;13066;52.042;5.648;2022-07-29T12:06:32;5.13;;;1.80;;
25073;SDS011;13066;52.042;5.648;2022-07-29T12:09:00;6.30;;;2.00;;
25073;SDS011;13066;52.042;5.648;2022-07-29T12:11:39;3.03;;;1.80;;
25073;SDS011;13066;52.042;5.648;2022-07-29T12:14:25;6.65;;;2.00;;
25073;SDS011;13066;52.042;5.648;2022-07-29T12:16:54;5.70;;;2.13;;
25073;SDS011;13066;52.042;5.648;2022-07-29T12:19:24;5.32;;;1.92;;
25073;SDS011;13066;52.042;5.648;2022-07-29T12:21:52;6.95;;;1.75;;
25073;SDS011;13066;52.042;5.648;2022-07-29T12:24:27;4.35;;;1.65;;
25073;SDS011;13066;52.042;5.648;2022-07-29T12:27:10;4.10;;;1.50;;
25073;SDS011;13066;52.042;5.648;2022-07-29T12:29:40;3.78;;;1.60;;
25073;SDS011;13066;52.042;5.648;2022-07-29T12:32:14;5.95;;;2.00;;
25073;SDS011;13066;52.042;5.648;2022-07-29T12:34:45;4.72;;;1.80;;
25073;SDS011;13066;52.042;5.648;2022-07-29T12:37:13;5.20;;;1.75;;
25073;SDS011;13066;52.042;5.648;2022-07-29T12:39:41;4.28;;;1.88;;
25073;SDS011;13066;52.042;5.648;2022-07-29T12:42:11;5.38;;;1.92;;
25073;SDS011;13066;52.042;5.648;2022-07-29T12:44:45;4.07;;;1.67;;
25073;SDS011;13066;52.042;5.648;2022-07-29T12:47:14;4.88;;;1.83;;
25073;SDS011;13066;52.042;5.648;2022-07-29T12:49:44;3.67;;;1.65;;
25073;SDS011;13066;52.042;5.648;2022-07-29T12:55:03;3.63;;;1.40;;
25073;SDS011;13066;52.042;5.648;2022-07-29T12:57:43;2.97;;;1.60;;
25073;SDS011;13066;52.042;5.648;2022-07-29T13:00:15;5.40;;;1.70;;
25073;SDS011;13066;52.042;5.648;2022-07-29T13:03:03;4.95;;;1.85;;
25073;SDS011;13066;52.042;5.648;2022-07-29T13:05:39;5.32;;;2.00;;
25073;SDS011;13066;52.042;5.648;2022-07-29T13:08:15;7.07;;;2.28;;
25073;SDS011;13066;52.042;5.648;2022-07-29T13:10:48;8.30;;;1.93;;
25073;SDS011;13066;52.042;5.648;2022-07-29T13:13:16;3.72;;;2.05;;
25073;SDS011;13066;52.042;5.648;2022-07-29T13:15:45;4.80;;;2.25;;
25073;SDS011;13066;52.042;5.648;2022-07-29T13:18:32;4.68;;;2.30;;
25073;SDS011;13066;52.042;5.648;2022-07-29T13:21:09;10.77;;;2.80;;
25073;SDS011;13066;52.042;5.648;2022-07-29T13:23:39;10.00;;;2.60;;
25073;SDS011;13066;52.042;5.648;2022-07-29T13:26:07;7.78;;;2.35;;
25073;SDS011;13066;52.042;5.648;2022-07-29T13:28:37;5.53;;;2.00;;
25073;SDS011;13066;52.042;5.648;2022-07-29T13:31:10;8.23;;;2.45;;
25073;SDS011;13066;52.042;5.648;2022-07-29T13:33:39;6.10;;;2.30;;
25073;SDS011;13066;52.042;5.648;2022-07-29T13:36:07;6.68;;;2.33;;
25073;SDS011;13066;52.042;5.648;2022-07-29T13:38:35;6.05;;;2.25;;
25073;SDS011;13066;52.042;5.648;2022-07-29T13:41:03;7.47;;;2.17;;
25073;SDS011;13066;52.042;5.648;2022-07-29T13:43:31;11.00;;;3.13;;
25073;SDS011;13066;52.042;5.648;2022-07-29T13:45:59;9.15;;;2.30;;
25073;SDS011;13066;52.042;5.648;2022-07-29T13:48:29;9.68;;;3.03;;
25073;SDS011;13066;52.042;5.648;2022-07-29T13:50:57;5.57;;;2.45;;
25073;SDS011;13066;52.042;5.648;2022-07-29T13:53:25;4.88;;;2.42;;
25073;SDS011;13066;52.042;5.648;2022-07-29T13:55:54;10.35;;;2.45;;
25073;SDS011;13066;52.042;5.648;2022-07-29T13:58:22;5.47;;;2.53;;
25073;SDS011;13066;52.042;5.648;2022-07-29T14:00:50;6.13;;;2.40;;
25073;SDS011;13066;52.042;5.648;2022-07-29T14:03:18;10.85;;;2.88;;
25073;SDS011;13066;52.042;5.648;2022-07-29T14:05:48;8.65;;;2.80;;
25073;SDS011;13066;52.042;5.648;2022-07-29T14:08:16;6.40;;;2.55;;
25073;SDS011;13066;52.042;5.648;2022-07-29T14:10:44;8.13;;;2.40;;
25073;SDS011;13066;52.042;5.648;2022-07-29T14:13:13;7.22;;;2.00;;
25073;SDS011;13066;52.042;5.648;2022-07-29T14:15:51;3.92;;;2.17;;
25073;SDS011;13066;52.042;5.648;2022-07-29T14:18:19;3.88;;;2.53;;
25073;SDS011;13066;52.042;5.648;2022-07-29T14:20:49;6.57;;;2.28;;
25073;SDS011;13066;52.042;5.648;2022-07-29T14:23:17;5.57;;;2.05;;
25073;SDS011;13066;52.042;5.648;2022-07-29T14:25:45;6.32;;;2.47;;
25073;SDS011;13066;52.042;5.648;2022-07-29T14:28:14;4.28;;;2.08;;
25073;SDS011;13066;52.042;5.648;2022-07-29T14:30:43;4.57;;;1.80;;
25073;SDS011;13066;52.042;5.648;2022-07-29T14:33:11;4.93;;;2.40;;
25073;SDS011;13066;52.042;5.648;2022-07-29T14:35:39;5.15;;;2.05;;
25073;SDS011;13066;52.042;5.648;2022-07-29T14:38:09;4.20;;;1.73;;
25073;SDS011;13066;52.042;5.648;2022-07-29T14:40:37;7.25;;;2.20;;
25073;SDS011;13066;52.042;5.648;2022-07-29T14:43:05;4.00;;;1.83;;
25073;SDS011;13066;52.042;5.648;2022-07-29T14:45:33;10.55;;;2.50;;
25073;SDS011;13066;52.042;5.648;2022-07-29T14:48:01;5.50;;;1.80;;
25073;SDS011;13066;52.042;5.648;2022-07-29T14:50:30;5.03;;;2.05;;
25073;SDS011;13066;52.042;5.648;2022-07-29T14:52:58;7.32;;;2.20;;
25073;SDS011;13066;52.042;5.648;2022-07-29T14:55:27;7.05;;;2.13;;
25073;SDS011;13066;52.042;5.648;2022-07-29T14:57:56;2.88;;;1.75;;
25073;SDS011;13066;52.042;5.648;2022-07-29T15:00:36;4.80;;;1.50;;
25073;SDS011;13066;52.042;5.648;2022-07-29T15:03:04;5.35;;;1.90;;
25073;SDS011;13066;52.042;5.648;2022-07-29T15:05:36;4.30;;;1.70;;
25073;SDS011;13066;52.042;5.648;2022-07-29T15:08:04;3.97;;;1.70;;
25073;SDS011;13066;52.042;5.648;2022-07-29T15:10:35;7.28;;;1.80;;
25073;SDS011;13066;52.042;5.648;2022-07-29T15:13:03;3.60;;;1.63;;
25073;SDS011;13066;52.042;5.648;2022-07-29T15:15:32;5.25;;;1.65;;
25073;SDS011;13066;52.042;5.648;2022-07-29T15:18:00;3.40;;;1.50;;
25073;SDS011;13066;52.042;5.648;2022-07-29T15:20:28;3.95;;;1.83;;
25073;SDS011;13066;52.042;5.648;2022-07-29T15:22:56;6.80;;;1.73;;
25073;SDS011;13066;52.042;5.648;2022-07-29T15:25:25;6.82;;;1.40;;
25073;SDS011;13066;52.042;5.648;2022-07-29T15:27:55;4.75;;;1.55;;
25073;SDS011;13066;52.042;5.648;2022-07-29T15:30:27;7.15;;;1.60;;
25073;SDS011;13066;52.042;5.648;2022-07-29T15:32:59;5.15;;;1.70;;
25073;SDS011;13066;52.042;5.648;2022-07-29T15:35:28;6.57;;;1.88;;
25073;SDS011;13066;52.042;5.648;2022-07-29T15:37:56;5.32;;;1.70;;
25073;SDS011;13066;52.042;5.648;2022-07-29T15:40:24;2.30;;;1.23;;
25073;SDS011;13066;52.042;5.648;2022-07-29T15:42:53;4.60;;;1.55;;
25073;SDS011;13066;52.042;5.648;2022-07-29T15:45:22;3.67;;;1.55;;
25073;SDS011;13066;52.042;5.648;2022-07-29T15:47:56;5.72;;;2.33;;